This is the latest recevied weather packets stored in our database for station/object NK7E-2. If no packets are shown the sender has not sent any weather packets the latest 10 day(s).
| Time | Temp. | Humidity | Pressure | Rain* | Wind** | Luminosity | Snow |
|---|---|---|---|---|---|---|---|
| 1777770916 | 26.11° C | 22% | 1021.1 hPa | 0 mm | - | - | - |
| 1777770317 | 26.11° C | 22% | 1021.4 hPa | 0 mm | - | - | - |
| 1777769718 | 26.11° C | 22% | 1021.2 hPa | 0 mm | - | - | - |
| 1777769117 | 26.11° C | 22% | 1021.5 hPa | 0 mm | - | - | - |
| 1777768517 | 26.67° C | 22% | 1021.5 hPa | 0 mm | - | - | - |
| 1777767916 | 26.11° C | 22% | 1021.6 hPa | 0 mm | - | - | - |
| 1777767317 | 26.11° C | 23% | 1021.8 hPa | 0 mm | - | - | - |
| 1777766716 | 26.67° C | 23% | 1021.7 hPa | 0 mm | - | - | - |
| 1777766117 | 26.11° C | 23% | 1021.4 hPa | 0 mm | - | - | - |
| 1777765516 | 26.67° C | 23% | 1021.7 hPa | 0 mm | - | - | - |
| 1777764916 | 26.67° C | 23% | 1021.8 hPa | 0 mm | - | - | - |
| 1777764318 | 26.67° C | 23% | 1021.9 hPa | 0 mm | - | - | - |
| 1777763716 | 26.67° C | 23% | 1022 hPa | 0 mm | - | - | - |
| 1777763116 | 27.78° C | 22% | 1022.3 hPa | 0 mm | - | - | - |
| 1777762517 | 27.78° C | 22% | 1022.3 hPa | 0 mm | - | - | - |
| 1777761916 | 27.78° C | 21% | 1022.3 hPa | 0 mm | - | - | - |
| 1777761318 | 27.22° C | 21% | 1022.2 hPa | 0 mm | - | - | - |
| 1777760717 | 27.22° C | 21% | 1022.4 hPa | 0 mm | - | - | - |
| 1777760117 | 27.78° C | 21% | 1022.9 hPa | 0 mm | - | - | - |
| 1777759517 | 28.33° C | 20% | 1023.3 hPa | 0 mm | - | - | - |
| 1777758918 | 27.78° C | 21% | 1023.1 hPa | 0 mm | - | - | - |
| 1777758318 | 27.78° C | 21% | 1023.2 hPa | 0 mm | - | - | - |
| 1777757717 | 27.22° C | 21% | 1023.2 hPa | 0 mm | - | - | - |
| 1777757117 | 27.22° C | 16% | 1023 hPa | 0 mm | - | - | - |
| 1777756520 | 27.22° C | 16% | 1023.2 hPa | 0 mm | - | - | - |
* Rain latest hour (hover to see other rain measurements)
** Current wind speed in m/s (hover to see current wind gust speed)